createdAt,value
2018-07-13T15:05:45.995Z,27.10
2018-07-13T15:08:17.338Z,27.00
2018-07-13T15:10:48.571Z,26.90
2018-07-13T15:13:19.539Z,26.70
2018-07-13T15:15:50.417Z,26.70
2018-07-13T15:18:25.327Z,26.60
2018-07-13T15:21:00.154Z,26.60
2018-07-13T15:23:31.380Z,26.60
2018-07-13T15:26:02.662Z,26.60
2018-07-13T15:28:33.986Z,26.50
2018-07-13T15:31:05.822Z,26.40
2018-07-13T15:33:37.666Z,26.30
2018-07-13T15:36:09.100Z,26.20
2018-07-13T15:38:40.554Z,26.20
2018-07-13T15:41:11.754Z,26.30
2018-07-13T15:43:44.111Z,26.30
2018-07-13T15:46:16.030Z,26.30
2018-07-13T15:48:51.719Z,26.30
2018-07-13T15:51:23.044Z,26.20
2018-07-13T15:53:54.411Z,26.30
2018-07-13T15:56:25.675Z,26.30
2018-07-13T15:58:56.823Z,26.30
2018-07-13T16:01:27.783Z,26.30
2018-07-13T16:03:59.010Z,26.40
2018-07-13T16:06:29.781Z,26.30
2018-07-13T16:09:00.815Z,26.40
2018-07-13T16:11:31.570Z,26.30
2018-07-13T16:14:02.313Z,26.30
2018-07-13T16:16:33.561Z,26.30
2018-07-13T16:19:04.826Z,26.10
2018-07-13T16:21:35.746Z,26.00
2018-07-13T16:24:06.885Z,25.90
2018-07-13T16:26:42.212Z,25.90
2018-07-13T16:29:13.264Z,25.90
2018-07-13T16:31:46.214Z,25.90
2018-07-13T16:34:22.928Z,25.80
2018-07-13T16:37:04.583Z,25.70
2018-07-13T16:40:04.642Z,25.60
2018-07-13T16:42:35.388Z,25.60
2018-07-13T16:45:06.437Z,25.50
2018-07-13T16:47:40.448Z,25.40
2018-07-13T17:39:08.489Z,24.30
2018-07-13T17:41:43.890Z,24.20
